createdAt,value
2022-08-22T00:01:37.048Z,101594.84
2022-08-22T00:03:08.327Z,101616.19
2022-08-22T00:03:09.860Z,101587.66
2022-08-22T00:04:22.875Z,101593.38
2022-08-22T00:06:58.778Z,101587.63
2022-08-22T00:09:35.234Z,101587.81
2022-08-22T00:12:21.439Z,101584.50
2022-08-22T00:15:03.477Z,101589.19
2022-08-22T00:17:47.208Z,101593.31
2022-08-22T00:20:28.402Z,101586.94
2022-08-22T00:23:25.207Z,101597.81
2022-08-22T00:26:06.987Z,101594.34
2022-08-22T00:28:56.223Z,101587.56
2022-08-22T00:31:22.770Z,101591.59
2022-08-22T00:34:04.702Z,101595.13
2022-08-22T00:36:56.598Z,101592.44
2022-08-22T00:39:32.459Z,101595.94
2022-08-22T00:42:01.805Z,101592.81
2022-08-22T00:44:50.239Z,101597.50
2022-08-22T00:47:39.871Z,101598.09
2022-08-22T00:50:43.115Z,101595.47
2022-08-22T00:53:39.835Z,101600.34
2022-08-22T00:56:32.222Z,101601.31
2022-08-22T00:59:23.058Z,101599.69
2022-08-22T01:02:28.549Z,101603.97
2022-08-22T01:05:20.082Z,101600.31
2022-08-22T01:08:05.290Z,101600.50
2022-08-22T01:10:50.864Z,101600.88
2022-08-22T01:13:54.754Z,101604.56
2022-08-22T01:16:54.853Z,101608.59
2022-08-22T01:20:00.648Z,101601.44
2022-08-22T01:23:02.092Z,101614.13
2022-08-22T01:25:31.376Z,101611.41
2022-08-22T01:28:23.334Z,101608.72
2022-08-22T01:31:19.531Z,101611.22
2022-08-22T01:34:31.694Z,101606.53
2022-08-22T01:37:20.922Z,101615.50
2022-08-22T01:40:23.849Z,101615.97
2022-08-22T01:43:06.316Z,101614.13
2022-08-22T01:46:07.148Z,101615.56
2022-08-22T01:48:52.448Z,101606.13
2022-08-22T01:51:28.707Z,101610.81
2022-08-22T01:54:28.862Z,101612.03
2022-08-22T01:57:02.515Z,101604.41
2022-08-22T01:59:42.679Z,101611.75
2022-08-22T02:02:41.847Z,101605.63
2022-08-22T02:05:23.790Z,101607.06
2022-08-22T02:07:59.282Z,101603.13
2022-08-22T02:10:46.351Z,101609.28
2022-08-22T02:13:13.108Z,101601.09
2022-08-22T02:15:39.705Z,101597.81
2022-08-22T02:18:06.138Z,101598.84
2022-08-22T02:20:47.766Z,101599.09
2022-08-22T02:23:43.869Z,101599.25
2022-08-22T02:26:17.194Z,101597.44
2022-08-22T02:28:56.951Z,101601.09
2022-08-22T02:31:53.242Z,101590.41
2022-08-22T02:34:43.434Z,101591.84
2022-08-22T02:37:16.828Z,101596.72
2022-08-22T02:39:53.340Z,101591.84
2022-08-22T02:42:38.092Z,101579.19
2022-08-22T02:45:29.502Z,101591.22
2022-08-22T02:48:20.398Z,101586.34
2022-08-22T02:50:57.809Z,101581.66
2022-08-22T02:53:36.805Z,101579.00
2022-08-22T02:56:14.854Z,101577.72
2022-08-22T02:58:57.056Z,101578.38
2022-08-22T03:01:32.353Z,101584.06
2022-08-22T03:04:18.146Z,101580.94
2022-08-22T03:06:59.193Z,101589.66
2022-08-22T03:09:32.382Z,101588.00
2022-08-22T03:12:08.281Z,101578.75
2022-08-22T03:14:47.723Z,101578.13
2022-08-22T03:17:49.395Z,101571.53
2022-08-22T03:20:35.672Z,101570.50
2022-08-22T03:23:20.299Z,101566.19
2022-08-22T03:25:59.681Z,101561.88
2022-08-22T03:28:37.168Z,101565.94
2022-08-22T03:31:14.454Z,101560.03
2022-08-22T03:33:41.539Z,101565.94
2022-08-22T03:36:14.010Z,101564.09
2022-08-22T03:39:17.360Z,101565.94
2022-08-22T03:41:57.863Z,101568.13
2022-08-22T03:44:50.623Z,101558.75
2022-08-22T03:47:48.193Z,101554.66
2022-08-22T03:50:26.738Z,101559.34
2022-08-22T03:53:15.425Z,101552.34
2022-08-22T03:55:45.557Z,101549.63
2022-08-22T03:58:36.793Z,101550.72
2022-08-22T04:01:19.325Z,101556.03
2022-08-22T04:04:20.107Z,101561.53
2022-08-22T04:07:31.491Z,101555.59
2022-08-22T04:10:29.159Z,101553.28
2022-08-22T04:13:09.845Z,101554.50
2022-08-22T04:15:46.455Z,101557.78
2022-08-22T04:18:50.100Z,101565.59
2022-08-22T04:21:28.929Z,101563.94
2022-08-22T04:23:55.757Z,101565.53
2022-08-22T04:26:52.891Z,101572.28
2022-08-22T04:29:28.454Z,101570.44
2022-08-22T04:32:17.455Z,101574.13
2022-08-22T04:34:56.007Z,101574.31
2022-08-22T04:37:35.362Z,101577.63
2022-08-22T04:40:24.366Z,101581.09
2022-08-22T04:43:08.375Z,101575.94
2022-08-22T04:45:41.431Z,101585.13
2022-08-22T04:48:37.598Z,101577.97
2022-08-22T04:51:16.039Z,101575.53
2022-08-22T04:54:12.572Z,101577.34
2022-08-22T04:56:54.539Z,101588.16
2022-08-22T04:59:24.181Z,101582.81
2022-08-22T05:01:56.662Z,101580.16
2022-08-22T05:04:32.159Z,101572.88
2022-08-22T05:07:22.897Z,101575.94
2022-08-22T05:09:56.316Z,101577.78
2022-08-22T05:12:32.838Z,101570.44
2022-08-22T05:15:18.960Z,101574.38
2022-08-22T05:17:53.039Z,101576.22
2022-08-22T05:20:23.638Z,101576.03
2022-08-22T05:22:58.528Z,101578.88
2022-08-22T05:25:29.996Z,101587.69
2022-08-22T05:28:28.803Z,101583.41
2022-08-22T05:30:56.178Z,101579.25
2022-08-22T05:33:42.779Z,101578.06
2022-08-22T05:36:14.719Z,101580.28
2022-08-22T05:38:47.691Z,101589.06
2022-08-22T05:41:23.661Z,101584.56
2022-08-22T05:43:52.131Z,101585.84
2022-08-22T05:46:43.523Z,101588.31
2022-08-22T05:49:32.431Z,101590.00
2022-08-22T05:52:32.875Z,101594.56
2022-08-22T05:55:10.397Z,101601.91
2022-08-22T05:57:41.530Z,101612.53
2022-08-22T06:00:16.605Z,101607.03
2022-08-22T06:03:31.014Z,101609.50
2022-08-22T06:06:02.807Z,101615.91
2022-08-22T06:08:39.387Z,101608.38
2022-08-22T06:11:15.635Z,101611.69
2022-08-22T06:13:51.107Z,101609.31
2022-08-22T06:16:22.779Z,101610.75
2022-08-22T06:18:51.713Z,101610.66
2022-08-22T06:21:32.553Z,101607.47
2022-08-22T06:24:04.016Z,101612.84
2022-08-22T06:26:38.136Z,101619.25
2022-08-22T06:29:07.175Z,101608.88
2022-08-22T06:31:45.015Z,101616.09
2022-08-22T06:34:34.080Z,101622.50
2022-08-22T06:37:05.568Z,101624.59
2022-08-22T06:39:38.954Z,101627.53
2022-08-22T06:42:16.779Z,101622.25
2022-08-22T06:44:49.068Z,101630.09
2022-08-22T06:47:22.857Z,101630.72
2022-08-22T06:49:56.417Z,101631.00
2022-08-22T06:52:25.978Z,101633.91
2022-08-22T06:55:00.204Z,101635.59
2022-08-22T06:57:58.706Z,101637.25
2022-08-22T07:00:26.744Z,101639.81
2022-08-22T07:02:58.801Z,101634.94
2022-08-22T07:05:34.983Z,101633.34
2022-08-22T07:08:08.308Z,101636.03
2022-08-22T07:10:35.054Z,101635.47
2022-08-22T07:13:03.876Z,101629.53
2022-08-22T07:15:34.446Z,101642.09
2022-08-22T07:18:16.826Z,101637.22
2022-08-22T07:20:49.829Z,101642.63
2022-08-22T07:23:45.809Z,101645.13
2022-08-22T07:26:30.627Z,101640.59
2022-08-22T07:29:12.872Z,101645.16
2022-08-22T07:31:55.082Z,101646.63
2022-08-22T07:34:39.556Z,101650.91
2022-08-22T07:37:21.803Z,101646.63
2022-08-22T07:39:54.953Z,101654.66
2022-08-22T07:42:30.348Z,101645.69
2022-08-22T07:45:07.056Z,101644.91
2022-08-22T07:48:11.766Z,101642.91
2022-08-22T07:50:47.774Z,101639.63
2022-08-22T07:53:34.742Z,101642.34
2022-08-22T07:56:04.254Z,101634.97
2022-08-22T07:58:35.036Z,101637.47
2022-08-22T08:01:02.009Z,101629.44
2022-08-22T08:03:30.995Z,101627.00
2022-08-22T08:05:59.519Z,101636.88
2022-08-22T08:08:42.125Z,101616.97
2022-08-22T08:11:11.950Z,101620.03
2022-08-22T08:13:43.524Z,101619.03
2022-08-22T08:16:17.914Z,101621.69
2022-08-22T08:18:48.194Z,101613.47
2022-08-22T08:21:38.051Z,101618.41
2022-08-22T08:24:07.996Z,101604.00
2022-08-22T08:27:01.594Z,101598.03
2022-08-22T08:29:28.850Z,101607.28
2022-08-22T08:31:55.663Z,101594.13
2022-08-22T08:34:25.198Z,101606.44
2022-08-22T08:36:57.367Z,101592.44
2022-08-22T08:39:35.276Z,101589.75
2022-08-22T08:42:31.848Z,101591.38
2022-08-22T08:45:46.547Z,101584.19
2022-08-22T08:48:34.804Z,101590.56
2022-08-22T08:54:26.635Z,101592.59
2022-08-22T08:57:03.514Z,101588.03
2022-08-22T08:59:49.276Z,101597.28
2022-08-22T09:02:35.206Z,101586.19
2022-08-22T09:05:35.769Z,101587.97
2022-08-22T09:08:24.827Z,101585.34
2022-08-22T09:11:09.888Z,101584.78
2022-08-22T09:13:46.029Z,101579.94
2022-08-22T09:16:52.713Z,101579.75
2022-08-22T09:19:19.051Z,101583.19
2022-08-22T09:22:14.483Z,101579.91
2022-08-22T09:25:11.123Z,101581.38
2022-08-22T09:27:49.643Z,101580.22
2022-08-22T09:33:18.112Z,101583.72
2022-08-22T09:35:59.598Z,101576.81
2022-08-22T09:38:55.515Z,101582.41
2022-08-22T09:41:36.314Z,101580.50
2022-08-22T09:44:08.658Z,101582.94
2022-08-22T09:47:03.201Z,101573.75
2022-08-22T09:49:48.208Z,101570.72
2022-08-22T09:52:42.753Z,101568.75
2022-08-22T09:55:35.003Z,101559.31
2022-08-22T09:58:11.278Z,101568.53
2022-08-22T10:00:47.077Z,101572.75
2022-08-22T10:03:31.129Z,101563.88
2022-08-22T10:06:11.098Z,101563.16
2022-08-22T10:08:45.769Z,101567.38
2022-08-22T10:11:22.147Z,101559.69
2022-08-22T10:14:01.566Z,101549.47
2022-08-22T10:16:43.428Z,101560.44
2022-08-22T10:19:28.779Z,101549.97
2022-08-22T10:22:15.536Z,101550.16
2022-08-22T10:24:56.166Z,101548.84
2022-08-22T10:27:35.320Z,101549.22
2022-08-22T10:30:10.311Z,101542.00
2022-08-22T10:33:12.090Z,101538.06
2022-08-22T10:35:51.124Z,101532.91
2022-08-22T10:38:46.293Z,101536.44
2022-08-22T10:41:42.671Z,101533.97
2022-08-22T10:44:30.315Z,101534.38
2022-08-22T10:47:07.576Z,101530.31
2022-08-22T10:49:46.432Z,101529.41
2022-08-22T10:52:26.592Z,101531.50
2022-08-22T10:55:01.333Z,101529.81
2022-08-22T10:58:13.587Z,101529.06
2022-08-22T11:00:58.353Z,101528.72
2022-08-22T11:03:35.432Z,101530.59
2022-08-22T11:06:12.755Z,101525.25
2022-08-22T11:08:59.261Z,101517.41
2022-08-22T11:11:47.796Z,101516.38
2022-08-22T11:14:24.863Z,101512.19
2022-08-22T11:17:30.195Z,101507.16
2022-08-22T11:20:38.000Z,101504.44
2022-08-22T11:23:37.167Z,101499.03
2022-08-22T11:26:38.291Z,101504.34
2022-08-22T11:29:52.167Z,101496.91
2022-08-22T11:33:03.583Z,101504.00
2022-08-22T11:35:43.582Z,101508.16
2022-08-22T11:38:37.086Z,101500.56
2022-08-22T11:41:25.446Z,101501.31
2022-08-22T11:44:03.745Z,101503.66
2022-08-22T11:46:38.392Z,101502.53
2022-08-22T11:49:25.684Z,101498.66
2022-08-22T11:52:00.175Z,101492.53
2022-08-22T11:54:42.229Z,101494.00
2022-08-22T11:57:19.991Z,101500.50
2022-08-22T11:59:46.497Z,101486.50
2022-08-22T12:02:23.207Z,101483.94
2022-08-22T12:04:57.457Z,101486.91
2022-08-22T12:07:29.740Z,101482.59
2022-08-22T12:10:16.593Z,101480.44
2022-08-22T12:13:08.199Z,101481.22
2022-08-22T12:15:53.950Z,101482.03
2022-08-22T12:18:45.026Z,101475.22
2022-08-22T12:21:23.176Z,101473.25
2022-08-22T12:24:21.606Z,101472.44
2022-08-22T12:27:11.551Z,101483.25
2022-08-22T12:30:04.482Z,101473.19
2022-08-22T12:33:23.048Z,101481.53
2022-08-22T12:36:26.063Z,101472.63
2022-08-22T12:39:32.246Z,101472.34
2022-08-22T12:42:17.440Z,101466.09
2022-08-22T12:45:05.705Z,101457.69
2022-08-22T12:48:07.351Z,101469.06
2022-08-22T12:50:54.981Z,101460.88
2022-08-22T12:53:31.186Z,101463.78
2022-08-22T12:56:06.242Z,101459.97
2022-08-22T12:59:12.380Z,101451.03
2022-08-22T13:01:48.016Z,101456.69
2022-08-22T13:04:32.409Z,101451.47
2022-08-22T13:07:25.366Z,101463.09
2022-08-22T13:09:57.640Z,101465.25
2022-08-22T13:12:36.765Z,101460.63
2022-08-22T13:15:24.915Z,101457.22
2022-08-22T13:17:52.744Z,101450.94
2022-08-22T13:20:42.837Z,101449.97
2022-08-22T13:23:41.818Z,101439.66
2022-08-22T13:26:31.749Z,101447.56
2022-08-22T13:29:26.173Z,101441.16
2022-08-22T13:32:00.081Z,101449.06
2022-08-22T13:34:45.419Z,101432.28
2022-08-22T13:37:16.796Z,101433.97
2022-08-22T13:39:49.102Z,101433.53
2022-08-22T13:42:29.892Z,101430.84
2022-08-22T13:45:02.426Z,101430.81
2022-08-22T13:47:31.863Z,101424.75
2022-08-22T13:50:19.911Z,101426.63
2022-08-22T13:52:55.365Z,101422.03
2022-08-22T13:55:31.079Z,101436.50
2022-08-22T13:58:02.875Z,101425.59
2022-08-22T14:01:14.464Z,101433.81
2022-08-22T14:03:48.825Z,101427.28
2022-08-22T14:06:37.550Z,101428.84
2022-08-22T14:09:50.170Z,101424.25
2022-08-22T14:12:24.544Z,101419.03
2022-08-22T14:15:01.834Z,101420.00
2022-08-22T14:17:42.712Z,101426.38
2022-08-22T14:20:32.378Z,101422.63
2022-08-22T14:23:16.114Z,101411.22
2022-08-22T14:25:43.641Z,101423.56
2022-08-22T14:28:27.571Z,101417.78
2022-08-22T14:31:01.890Z,101420.63
2022-08-22T14:33:37.029Z,101417.78
2022-08-22T14:36:20.705Z,101411.97
2022-08-22T14:38:53.436Z,101423.19
2022-08-22T14:41:55.501Z,101413.72
2022-08-22T14:44:37.870Z,101409.81
2022-08-22T14:47:32.210Z,101404.59
2022-08-22T14:49:59.354Z,101408.94
2022-08-22T14:52:42.594Z,101400.16
2022-08-22T14:55:22.272Z,101395.13
2022-08-22T14:58:03.533Z,101399.59
2022-08-22T15:00:39.558Z,101388.19
2022-08-22T15:03:15.881Z,101394.13
2022-08-22T15:05:57.822Z,101389.63
2022-08-22T15:08:46.326Z,101394.34
2022-08-22T15:11:20.555Z,101393.03
2022-08-22T15:14:25.538Z,101380.72
2022-08-22T15:16:57.000Z,101378.28
2022-08-22T15:19:26.103Z,101383.09
2022-08-22T15:22:14.998Z,101379.34
2022-08-22T15:24:47.197Z,101381.69
2022-08-22T15:27:19.236Z,101380.56
2022-08-22T15:29:52.667Z,101374.66
2022-08-22T15:32:28.887Z,101372.28
2022-08-22T15:35:27.638Z,101371.91
2022-08-22T15:38:02.683Z,101375.06
2022-08-22T15:40:42.803Z,101371.25
2022-08-22T15:43:34.840Z,101368.84
2022-08-22T15:46:18.068Z,101365.84
2022-08-22T15:48:56.886Z,101363.25
2022-08-22T15:51:41.492Z,101366.50
2022-08-22T15:54:24.293Z,101367.56
2022-08-22T15:57:17.248Z,101370.88
2022-08-22T15:59:57.621Z,101363.28
2022-08-22T16:02:40.724Z,101364.56
2022-08-22T16:05:07.027Z,101360.94
2022-08-22T16:07:43.226Z,101361.25
2022-08-22T16:10:31.805Z,101355.53
2022-08-22T16:13:13.391Z,101352.91
2022-08-22T16:15:54.116Z,101352.09
2022-08-22T16:18:39.070Z,101345.53
2022-08-22T16:21:05.403Z,101352.81
2022-08-22T16:23:53.633Z,101352.25
2022-08-22T16:26:40.496Z,101356.78
2022-08-22T16:29:26.903Z,101347.44
2022-08-22T16:31:55.976Z,101351.31
2022-08-22T16:34:37.282Z,101343.53
2022-08-22T16:37:03.635Z,101348.94
2022-08-22T16:39:48.334Z,101341.47
2022-08-22T16:42:22.525Z,101341.13
2022-08-22T16:45:18.163Z,101338.41
2022-08-22T16:47:52.711Z,101332.16
2022-08-22T16:50:34.096Z,101335.97
2022-08-22T16:53:00.525Z,101330.50
2022-08-22T16:55:29.781Z,101331.06
2022-08-22T16:58:14.932Z,101335.06
2022-08-22T17:01:29.200Z,101330.44
2022-08-22T17:04:24.055Z,101322.56
2022-08-22T17:07:10.511Z,101318.13
2022-08-22T17:09:51.878Z,101319.56
2022-08-22T17:12:30.351Z,101318.91
2022-08-22T17:15:15.232Z,101316.97
2022-08-22T17:18:13.868Z,101317.38
2022-08-22T17:21:06.978Z,101315.94
2022-08-22T17:23:41.056Z,101312.75
2022-08-22T17:26:36.634Z,101314.03
2022-08-22T17:29:15.172Z,101311.97
2022-08-22T17:31:58.904Z,101308.88
2022-08-22T17:34:49.566Z,101306.16
2022-08-22T17:37:22.360Z,101310.81
2022-08-22T17:40:11.396Z,101312.03
2022-08-22T17:42:40.675Z,101311.66
2022-08-22T17:45:32.384Z,101305.06
2022-08-22T17:48:24.812Z,101313.75
2022-08-22T17:50:57.182Z,101308.97
2022-08-22T17:53:35.500Z,101316.16
2022-08-22T17:56:18.843Z,101316.28
2022-08-22T17:58:53.488Z,101317.44
2022-08-22T18:01:47.974Z,101315.38
2022-08-22T18:04:47.580Z,101328.31
2022-08-22T18:07:14.017Z,101326.13
2022-08-22T18:09:51.811Z,101320.06
2022-08-22T18:12:34.410Z,101322.44
2022-08-22T18:15:19.486Z,101324.19
2022-08-22T18:18:07.823Z,101325.97
2022-08-22T18:20:56.643Z,101327.97
2022-08-22T18:23:36.096Z,101330.03
2022-08-22T18:26:27.525Z,101339.59
2022-08-22T18:29:17.064Z,101333.75
2022-08-22T18:32:05.241Z,101328.97
2022-08-22T18:34:56.155Z,101329.56
2022-08-22T18:37:46.232Z,101340.41
2022-08-22T18:40:37.997Z,101347.41
2022-08-22T18:43:24.139Z,101351.09
2022-08-22T18:45:50.583Z,101352.47
2022-08-22T18:48:59.232Z,101358.53
2022-08-22T18:51:38.621Z,101361.50
2022-08-22T18:54:05.110Z,101356.47
2022-08-22T18:56:31.475Z,101366.47
2022-08-22T18:59:22.571Z,101366.13
2022-08-22T19:02:11.211Z,101373.22
2022-08-22T19:05:05.369Z,101381.91
2022-08-22T19:08:00.211Z,101378.31
2022-08-22T19:10:54.088Z,101379.03
2022-08-22T19:13:47.434Z,101379.34
2022-08-22T19:16:26.180Z,101385.44
2022-08-22T19:19:00.340Z,101393.63
2022-08-22T19:21:55.530Z,101392.50
2022-08-22T19:24:27.782Z,101390.94
2022-08-22T19:27:20.703Z,101395.53
2022-08-22T19:29:47.079Z,101397.91
2022-08-22T19:32:49.978Z,101400.03
2022-08-22T19:35:25.437Z,101401.19
2022-08-22T19:37:57.899Z,101399.44
2022-08-22T19:40:53.436Z,101401.50
2022-08-22T19:43:36.891Z,101394.34
2022-08-22T19:46:10.874Z,101397.03
2022-08-22T19:48:47.493Z,101401.41
2022-08-22T19:51:28.084Z,101395.69
2022-08-22T19:54:17.338Z,101399.81
2022-08-22T19:57:15.949Z,101404.75
2022-08-22T19:59:52.985Z,101402.53
2022-08-22T20:02:38.793Z,101402.16
2022-08-22T20:05:38.074Z,101389.41
2022-08-22T20:08:17.586Z,101391.50
2022-08-22T20:10:55.819Z,101391.97
2022-08-22T20:13:26.794Z,101389.72
2022-08-22T20:16:13.359Z,101394.47
2022-08-22T20:19:17.688Z,101392.41
2022-08-22T20:22:02.311Z,101401.88
2022-08-22T20:24:40.213Z,101393.91
2022-08-22T20:27:17.096Z,101398.84
2022-08-22T20:29:51.139Z,101392.91
2022-08-22T20:32:20.395Z,101386.13
2022-08-22T20:34:50.661Z,101389.22
2022-08-22T20:37:39.853Z,101387.16
2022-08-22T20:40:55.377Z,101384.47
2022-08-22T20:43:34.390Z,101382.63
2022-08-22T20:46:12.561Z,101391.47
2022-08-22T20:48:43.123Z,101383.66
2022-08-22T20:51:15.505Z,101379.94
2022-08-22T20:53:42.064Z,101383.88
2022-08-22T20:56:09.736Z,101379.34
2022-08-22T20:58:39.773Z,101380.34
2022-08-22T21:01:07.287Z,101383.84
2022-08-22T21:03:44.615Z,101373.34
2022-08-22T21:06:20.346Z,101374.16
2022-08-22T21:09:11.453Z,101374.75
2022-08-22T21:11:40.483Z,101372.28
2022-08-22T21:14:25.971Z,101376.38
2022-08-22T21:16:53.100Z,101360.78
2022-08-22T21:19:24.980Z,101380.47
2022-08-22T21:21:51.873Z,101374.50
2022-08-22T21:24:18.504Z,101383.78
2022-08-22T21:26:55.628Z,101375.53
2022-08-22T21:29:27.021Z,101381.25
2022-08-22T21:32:31.673Z,101375.31
2022-08-22T21:34:58.905Z,101373.66
2022-08-22T21:37:45.994Z,101382.47
2022-08-22T21:40:17.658Z,101371.53
2022-08-22T21:43:07.373Z,101368.66
2022-08-22T21:45:42.581Z,101373.78
2022-08-22T21:48:43.670Z,101369.88
2022-08-22T21:51:38.709Z,101370.69
2022-08-22T21:54:28.076Z,101373.38
2022-08-22T21:56:57.954Z,101367.19
2022-08-22T21:59:51.188Z,101367.44
2022-08-22T22:02:37.367Z,101376.06
2022-08-22T22:05:17.547Z,101366.38
2022-08-22T22:07:46.846Z,101369.69
2022-08-22T22:10:18.499Z,101365.97
2022-08-22T22:12:47.791Z,101368.25
2022-08-22T22:15:19.192Z,101363.75
2022-08-22T22:17:45.812Z,101373.84
2022-08-22T22:20:15.232Z,101367.50
2022-08-22T22:22:46.029Z,101368.75
2022-08-22T22:25:38.735Z,101367.09
2022-08-22T22:28:03.527Z,101367.75
2022-08-22T22:32:56.463Z,101362.44
2022-08-22T22:35:22.809Z,101366.34
2022-08-22T22:37:49.223Z,101369.44
2022-08-22T22:40:15.684Z,101368.44
2022-08-22T22:42:42.734Z,101367.03
2022-08-22T22:45:10.758Z,101370.31
2022-08-22T22:47:38.193Z,101361.44
2022-08-22T22:50:05.694Z,101372.13
2022-08-22T22:52:32.109Z,101370.09
2022-08-22T22:54:58.535Z,101374.63
2022-08-22T22:57:25.677Z,101366.19
2022-08-22T22:59:52.226Z,101367.44
2022-08-22T23:02:21.897Z,101370.91
2022-08-22T23:04:55.235Z,101376.47
2022-08-22T23:07:26.723Z,101373.78
2022-08-22T23:09:56.035Z,101368.44
2022-08-22T23:12:25.177Z,101369.25
2022-08-22T23:14:51.610Z,101367.03
2022-08-22T23:17:19.258Z,101366.81
2022-08-22T23:19:46.304Z,101369.69
2022-08-22T23:22:14.153Z,101367.25
2022-08-22T23:24:40.783Z,101367.66
2022-08-22T23:27:08.789Z,101367.47
2022-08-22T23:29:37.120Z,101353.72
2022-08-22T23:32:04.560Z,101370.56
2022-08-22T23:34:37.209Z,101369.13
2022-08-22T23:37:06.640Z,101373.47
2022-08-22T23:39:34.548Z,101373.69
2022-08-22T23:42:01.911Z,101372.66
2022-08-22T23:44:32.776Z,101370.38
2022-08-22T23:47:00.084Z,101375.94
2022-08-22T23:49:28.024Z,101373.91
2022-08-22T23:51:55.158Z,101377.59
2022-08-22T23:54:22.494Z,101370.19
2022-08-22T23:56:55.075Z,101365.88
2022-08-22T23:59:30.747Z,101367.50
